sensor_id;sensor_type;location;lat;lon;timestamp;P1;durP1;ratioP1;P2;durP2;ratioP2
325;SDS011;150;52.352;14.058;2023-06-04T00:01:35;13.45;;;5.57;;
325;SDS011;150;52.352;14.058;2023-06-04T00:04:01;10.07;;;6.10;;
325;SDS011;150;52.352;14.058;2023-06-04T00:06:28;6.70;;;4.30;;
325;SDS011;150;52.352;14.058;2023-06-04T00:08:55;14.68;;;4.55;;
325;SDS011;150;52.352;14.058;2023-06-04T00:11:21;5.60;;;3.90;;
325;SDS011;150;52.352;14.058;2023-06-04T00:13:51;6.38;;;4.03;;
325;SDS011;150;52.352;14.058;2023-06-04T00:16:17;6.75;;;4.38;;
325;SDS011;150;52.352;14.058;2023-06-04T00:18:44;7.18;;;4.15;;
325;SDS011;150;52.352;14.058;2023-06-04T00:21:11;6.10;;;4.30;;
325;SDS011;150;52.352;14.058;2023-06-04T00:23:39;6.70;;;5.13;;
325;SDS011;150;52.352;14.058;2023-06-04T00:26:07;7.07;;;4.85;;
325;SDS011;150;52.352;14.058;2023-06-04T00:28:34;7.38;;;5.18;;
325;SDS011;150;52.352;14.058;2023-06-04T00:31:02;6.35;;;4.88;;
325;SDS011;150;52.352;14.058;2023-06-04T00:33:30;13.07;;;5.53;;
325;SDS011;150;52.352;14.058;2023-06-04T00:35:57;7.13;;;4.80;;
325;SDS011;150;52.352;14.058;2023-06-04T00:38:24;10.20;;;5.80;;
325;SDS011;150;52.352;14.058;2023-06-04T00:40:52;6.78;;;5.25;;
325;SDS011;150;52.352;14.058;2023-06-04T00:43:19;9.93;;;5.23;;
325;SDS011;150;52.352;14.058;2023-06-04T00:45:45;8.18;;;5.25;;
325;SDS011;150;52.352;14.058;2023-06-04T00:48:16;9.73;;;5.60;;
325;SDS011;150;52.352;14.058;2023-06-04T00:50:44;5.22;;;4.25;;
325;SDS011;150;52.352;14.058;2023-06-04T00:53:13;6.40;;;4.38;;
325;SDS011;150;52.352;14.058;2023-06-04T00:55:40;7.43;;;4.32;;
325;SDS011;150;52.352;14.058;2023-06-04T00:58:08;6.35;;;3.80;;
325;SDS011;150;52.352;14.058;2023-06-04T01:00:34;4.50;;;3.15;;
325;SDS011;150;52.352;14.058;2023-06-04T01:03:06;4.73;;;3.53;;
325;SDS011;150;52.352;14.058;2023-06-04T01:05:39;4.00;;;3.22;;
325;SDS011;150;52.352;14.058;2023-06-04T01:08:10;4.22;;;3.20;;
325;SDS011;150;52.352;14.058;2023-06-04T01:10:37;5.20;;;3.70;;
325;SDS011;150;52.352;14.058;2023-06-04T01:13:04;5.00;;;3.83;;
325;SDS011;150;52.352;14.058;2023-06-04T01:15:30;6.60;;;3.88;;
325;SDS011;150;52.352;14.058;2023-06-04T01:17:58;4.00;;;3.80;;
325;SDS011;150;52.352;14.058;2023-06-04T01:20:29;5.00;;;3.92;;
325;SDS011;150;52.352;14.058;2023-06-04T01:25:53;6.82;;;4.07;;
325;SDS011;150;52.352;14.058;2023-06-04T01:28:22;4.03;;;3.15;;
325;SDS011;150;52.352;14.058;2023-06-04T01:30:51;3.63;;;2.72;;
325;SDS011;150;52.352;14.058;2023-06-04T01:33:21;6.05;;;3.40;;
325;SDS011;150;52.352;14.058;2023-06-04T01:35:48;3.13;;;2.65;;
325;SDS011;150;52.352;14.058;2023-06-04T01:41:04;4.15;;;3.15;;
325;SDS011;150;52.352;14.058;2023-06-04T01:43:36;3.90;;;2.90;;
325;SDS011;150;52.352;14.058;2023-06-04T01:46:12;3.85;;;2.83;;
325;SDS011;150;52.352;14.058;2023-06-04T01:48:38;3.75;;;2.40;;
325;SDS011;150;52.352;14.058;2023-06-04T01:51:05;2.80;;;1.92;;
325;SDS011;150;52.352;14.058;2023-06-04T01:53:34;3.47;;;1.80;;
325;SDS011;150;52.352;14.058;2023-06-04T01:56:01;4.00;;;2.20;;
325;SDS011;150;52.352;14.058;2023-06-04T01:58:27;4.05;;;2.28;;
325;SDS011;150;52.352;14.058;2023-06-04T02:00:54;2.95;;;1.90;;
325;SDS011;150;52.352;14.058;2023-06-04T02:03:25;3.38;;;1.83;;
325;SDS011;150;52.352;14.058;2023-06-04T02:05:57;2.90;;;2.10;;
325;SDS011;150;52.352;14.058;2023-06-04T02:08:24;5.90;;;2.58;;
325;SDS011;150;52.352;14.058;2023-06-04T02:10:53;3.80;;;2.30;;
325;SDS011;150;52.352;14.058;2023-06-04T02:13:20;5.05;;;2.30;;
325;SDS011;150;52.352;14.058;2023-06-04T02:15:47;3.00;;;1.90;;
325;SDS011;150;52.352;14.058;2023-06-04T02:18:14;3.53;;;2.20;;
325;SDS011;150;52.352;14.058;2023-06-04T02:20:42;5.28;;;2.30;;
325;SDS011;150;52.352;14.058;2023-06-04T02:23:09;3.00;;;1.90;;
325;SDS011;150;52.352;14.058;2023-06-04T02:25:36;2.00;;;1.23;;
325;SDS011;150;52.352;14.058;2023-06-04T02:28:04;4.10;;;1.40;;
325;SDS011;150;52.352;14.058;2023-06-04T02:30:32;3.15;;;1.55;;
325;SDS011;150;52.352;14.058;2023-06-04T02:32:58;1.88;;;1.33;;
325;SDS011;150;52.352;14.058;2023-06-04T02:35:26;2.17;;;1.20;;
325;SDS011;150;52.352;14.058;2023-06-04T02:37:53;1.80;;;1.20;;
325;SDS011;150;52.352;14.058;2023-06-04T02:40:21;2.35;;;1.13;;
325;SDS011;150;52.352;14.058;2023-06-04T02:42:48;2.00;;;1.10;;
325;SDS011;150;52.352;14.058;2023-06-04T02:45:16;3.00;;;1.60;;
325;SDS011;150;52.352;14.058;2023-06-04T02:47:43;2.53;;;1.50;;
325;SDS011;150;52.352;14.058;2023-06-04T02:50:10;2.00;;;1.25;;
325;SDS011;150;52.352;14.058;2023-06-04T02:52:37;4.90;;;1.50;;
325;SDS011;150;52.352;14.058;2023-06-04T02:55:05;2.30;;;1.23;;
325;SDS011;150;52.352;14.058;2023-06-04T02:57:35;1.90;;;1.35;;
325;SDS011;150;52.352;14.058;2023-06-04T03:00:03;2.80;;;1.60;;
325;SDS011;150;52.352;14.058;2023-06-04T03:02:38;2.53;;;1.38;;
325;SDS011;150;52.352;14.058;2023-06-04T03:05:26;3.17;;;1.85;;
325;SDS011;150;52.352;14.058;2023-06-04T03:07:55;2.38;;;1.40;;
325;SDS011;150;52.352;14.058;2023-06-04T03:10:25;1.80;;;1.13;;
325;SDS011;150;52.352;14.058;2023-06-04T03:12:51;2.00;;;1.30;;
325;SDS011;150;52.352;14.058;2023-06-04T03:15:18;3.00;;;1.80;;
325;SDS011;150;52.352;14.058;2023-06-04T03:17:46;3.30;;;1.45;;
325;SDS011;150;52.352;14.058;2023-06-04T03:20:13;2.30;;;1.30;;
325;SDS011;150;52.352;14.058;2023-06-04T03:22:40;2.60;;;1.10;;
325;SDS011;150;52.352;14.058;2023-06-04T03:25:07;1.80;;;1.25;;
325;SDS011;150;52.352;14.058;2023-06-04T03:27:38;2.60;;;1.20;;
325;SDS011;150;52.352;14.058;2023-06-04T03:30:05;2.38;;;1.20;;
325;SDS011;150;52.352;14.058;2023-06-04T03:32:33;2.50;;;1.30;;
325;SDS011;150;52.352;14.058;2023-06-04T03:35:01;2.20;;;1.50;;
325;SDS011;150;52.352;14.058;2023-06-04T03:37:28;2.10;;;1.00;;
325;SDS011;150;52.352;14.058;2023-06-04T03:39:55;3.15;;;1.30;;
325;SDS011;150;52.352;14.058;2023-06-04T03:42:22;1.70;;;1.00;;
325;SDS011;150;52.352;14.058;2023-06-04T03:44:48;2.88;;;1.50;;
325;SDS011;150;52.352;14.058;2023-06-04T03:47:18;2.33;;;1.17;;
325;SDS011;150;52.352;14.058;2023-06-04T03:49:45;2.20;;;1.50;;
325;SDS011;150;52.352;14.058;2023-06-04T03:52:13;6.15;;;1.55;;
325;SDS011;150;52.352;14.058;2023-06-04T03:54:41;2.78;;;1.60;;
325;SDS011;150;52.352;14.058;2023-06-04T03:57:09;2.40;;;1.60;;
325;SDS011;150;52.352;14.058;2023-06-04T03:59:35;1.60;;;1.10;;
325;SDS011;150;52.352;14.058;2023-06-04T04:02:02;2.63;;;1.75;;
325;SDS011;150;52.352;14.058;2023-06-04T04:04:30;2.20;;;1.20;;
325;SDS011;150;52.352;14.058;2023-06-04T04:06:58;3.07;;;1.40;;
325;SDS011;150;52.352;14.058;2023-06-04T04:09:26;4.72;;;1.60;;
325;SDS011;150;52.352;14.058;2023-06-04T04:11:54;4.10;;;1.90;;
325;SDS011;150;52.352;14.058;2023-06-04T04:14:20;4.60;;;1.58;;
325;SDS011;150;52.352;14.058;2023-06-04T04:16:47;6.40;;;2.20;;
325;SDS011;150;52.352;14.058;2023-06-04T04:19:14;4.27;;;2.17;;
325;SDS011;150;52.352;14.058;2023-06-04T04:21:41;2.80;;;1.70;;
325;SDS011;150;52.352;14.058;2023-06-04T04:24:08;4.53;;;2.30;;
325;SDS011;150;52.352;14.058;2023-06-04T04:26:38;3.07;;;1.70;;
325;SDS011;150;52.352;14.058;2023-06-04T04:29:14;2.80;;;1.55;;
325;SDS011;150;52.352;14.058;2023-06-04T04:31:47;3.00;;;2.00;;
325;SDS011;150;52.352;14.058;2023-06-04T04:34:14;3.00;;;1.50;;
325;SDS011;150;52.352;14.058;2023-06-04T04:36:41;3.08;;;2.00;;
325;SDS011;150;52.352;14.058;2023-06-04T04:39:09;2.97;;;2.00;;
325;SDS011;150;52.352;14.058;2023-06-04T04:41:39;3.20;;;1.80;;
325;SDS011;150;52.352;14.058;2023-06-04T04:44:06;2.78;;;1.83;;
325;SDS011;150;52.352;14.058;2023-06-04T04:46:33;5.30;;;1.83;;
325;SDS011;150;52.352;14.058;2023-06-04T04:48:59;2.38;;;1.42;;
325;SDS011;150;52.352;14.058;2023-06-04T04:51:28;2.90;;;1.88;;
325;SDS011;150;52.352;14.058;2023-06-04T04:53:55;2.78;;;1.60;;
325;SDS011;150;52.352;14.058;2023-06-04T04:56:21;4.15;;;1.98;;
325;SDS011;150;52.352;14.058;2023-06-04T04:58:57;3.92;;;1.33;;
325;SDS011;150;52.352;14.058;2023-06-04T05:01:24;4.57;;;2.33;;
325;SDS011;150;52.352;14.058;2023-06-04T05:03:50;3.10;;;1.50;;
325;SDS011;150;52.352;14.058;2023-06-04T05:06:17;2.10;;;1.30;;
325;SDS011;150;52.352;14.058;2023-06-04T05:08:46;3.30;;;1.30;;
325;SDS011;150;52.352;14.058;2023-06-04T05:11:13;2.88;;;1.58;;
325;SDS011;150;52.352;14.058;2023-06-04T05:13:40;3.97;;;1.42;;
325;SDS011;150;52.352;14.058;2023-06-04T05:16:12;2.90;;;1.65;;
325;SDS011;150;52.352;14.058;2023-06-04T05:18:45;2.40;;;1.40;;
325;SDS011;150;52.352;14.058;2023-06-04T05:21:16;2.92;;;1.73;;
325;SDS011;150;52.352;14.058;2023-06-04T05:23:45;3.30;;;1.50;;
325;SDS011;150;52.352;14.058;2023-06-04T05:26:14;2.30;;;1.30;;
325;SDS011;150;52.352;14.058;2023-06-04T05:28:44;3.30;;;1.90;;
325;SDS011;150;52.352;14.058;2023-06-04T05:31:15;2.83;;;1.70;;
325;SDS011;150;52.352;14.058;2023-06-04T05:33:43;2.70;;;1.80;;
325;SDS011;150;52.352;14.058;2023-06-04T05:36:10;3.75;;;1.60;;
325;SDS011;150;52.352;14.058;2023-06-04T05:38:37;3.88;;;1.58;;
325;SDS011;150;52.352;14.058;2023-06-04T05:41:04;2.03;;;1.40;;
325;SDS011;150;52.352;14.058;2023-06-04T05:43:36;4.95;;;1.90;;
325;SDS011;150;52.352;14.058;2023-06-04T05:46:03;2.67;;;1.58;;
325;SDS011;150;52.352;14.058;2023-06-04T05:48:36;2.72;;;1.50;;
325;SDS011;150;52.352;14.058;2023-06-04T05:51:03;4.60;;;1.90;;
325;SDS011;150;52.352;14.058;2023-06-04T05:53:38;3.20;;;1.80;;
325;SDS011;150;52.352;14.058;2023-06-04T05:56:05;4.30;;;1.87;;
325;SDS011;150;52.352;14.058;2023-06-04T05:58:32;4.57;;;1.83;;
325;SDS011;150;52.352;14.058;2023-06-04T06:00:59;2.00;;;1.40;;
325;SDS011;150;52.352;14.058;2023-06-04T06:03:26;2.20;;;1.40;;
325;SDS011;150;52.352;14.058;2023-06-04T06:05:54;3.70;;;1.47;;
325;SDS011;150;52.352;14.058;2023-06-04T06:08:22;1.60;;;1.00;;
325;SDS011;150;52.352;14.058;2023-06-04T06:10:48;2.75;;;1.25;;
325;SDS011;150;52.352;14.058;2023-06-04T06:13:15;5.50;;;1.30;;
325;SDS011;150;52.352;14.058;2023-06-04T06:15:42;3.43;;;1.30;;
325;SDS011;150;52.352;14.058;2023-06-04T06:18:09;2.70;;;1.10;;
325;SDS011;150;52.352;14.058;2023-06-04T06:20:36;2.73;;;1.60;;
325;SDS011;150;52.352;14.058;2023-06-04T06:23:06;4.18;;;1.50;;
325;SDS011;150;52.352;14.058;2023-06-04T06:25:33;2.50;;;1.35;;
325;SDS011;150;52.352;14.058;2023-06-04T06:28:00;1.67;;;0.95;;
325;SDS011;150;52.352;14.058;2023-06-04T06:30:26;2.95;;;1.58;;
325;SDS011;150;52.352;14.058;2023-06-04T06:32:53;2.00;;;1.00;;
325;SDS011;150;52.352;14.058;2023-06-04T06:35:19;2.78;;;1.17;;
325;SDS011;150;52.352;14.058;2023-06-04T06:37:46;5.63;;;1.20;;
325;SDS011;150;52.352;14.058;2023-06-04T06:40:14;2.72;;;1.00;;
325;SDS011;150;52.352;14.058;2023-06-04T06:42:41;3.90;;;1.30;;
325;SDS011;150;52.352;14.058;2023-06-04T06:45:08;2.20;;;1.00;;
325;SDS011;150;52.352;14.058;2023-06-04T06:47:35;7.68;;;2.13;;
325;SDS011;150;52.352;14.058;2023-06-04T06:50:02;3.30;;;1.77;;
325;SDS011;150;52.352;14.058;2023-06-04T06:52:28;2.10;;;1.23;;
325;SDS011;150;52.352;14.058;2023-06-04T06:54:55;4.25;;;2.08;;
325;SDS011;150;52.352;14.058;2023-06-04T06:57:23;5.63;;;1.33;;
325;SDS011;150;52.352;14.058;2023-06-04T06:59:50;2.97;;;1.00;;
325;SDS011;150;52.352;14.058;2023-06-04T07:02:19;2.33;;;0.85;;
325;SDS011;150;52.352;14.058;2023-06-04T07:04:45;2.30;;;0.90;;
325;SDS011;150;52.352;14.058;2023-06-04T07:07:12;4.03;;;1.30;;
325;SDS011;150;52.352;14.058;2023-06-04T07:09:38;1.92;;;0.90;;
325;SDS011;150;52.352;14.058;2023-06-04T07:12:05;4.45;;;2.28;;
325;SDS011;150;52.352;14.058;2023-06-04T07:14:33;4.00;;;2.70;;
325;SDS011;150;52.352;14.058;2023-06-04T07:17:00;1.88;;;0.80;;
325;SDS011;150;52.352;14.058;2023-06-04T07:19:27;2.35;;;1.15;;
325;SDS011;150;52.352;14.058;2023-06-04T07:21:54;2.70;;;0.98;;
325;SDS011;150;52.352;14.058;2023-06-04T07:24:21;9.00;;;5.90;;
325;SDS011;150;52.352;14.058;2023-06-04T07:26:47;2.10;;;1.20;;
325;SDS011;150;52.352;14.058;2023-06-04T07:29:14;1.88;;;0.70;;
325;SDS011;150;52.352;14.058;2023-06-04T07:31:42;1.80;;;0.70;;
325;SDS011;150;52.352;14.058;2023-06-04T07:34:09;1.40;;;0.60;;
325;SDS011;150;52.352;14.058;2023-06-04T07:36:35;2.10;;;0.80;;
325;SDS011;150;52.352;14.058;2023-06-04T07:39:02;2.00;;;0.80;;
325;SDS011;150;52.352;14.058;2023-06-04T07:41:29;1.90;;;0.80;;
325;SDS011;150;52.352;14.058;2023-06-04T07:43:56;2.10;;;1.00;;
325;SDS011;150;52.352;14.058;2023-06-04T07:46:23;2.53;;;1.17;;
325;SDS011;150;52.352;14.058;2023-06-04T07:48:50;2.70;;;0.98;;
325;SDS011;150;52.352;14.058;2023-06-04T07:51:17;2.00;;;0.80;;
325;SDS011;150;52.352;14.058;2023-06-04T07:53:44;2.55;;;1.20;;
325;SDS011;150;52.352;14.058;2023-06-04T07:56:11;2.30;;;0.73;;
325;SDS011;150;52.352;14.058;2023-06-04T07:58:37;1.40;;;0.60;;
325;SDS011;150;52.352;14.058;2023-06-04T08:01:04;3.20;;;0.70;;
325;SDS011;150;52.352;14.058;2023-06-04T08:03:31;2.00;;;0.90;;
325;SDS011;150;52.352;14.058;2023-06-04T08:05:59;1.70;;;0.60;;
325;SDS011;150;52.352;14.058;2023-06-04T08:08:26;1.48;;;0.68;;
325;SDS011;150;52.352;14.058;2023-06-04T08:10:53;3.40;;;0.60;;
325;SDS011;150;52.352;14.058;2023-06-04T08:13:19;1.60;;;0.70;;
325;SDS011;150;52.352;14.058;2023-06-04T08:15:46;2.05;;;0.93;;
325;SDS011;150;52.352;14.058;2023-06-04T08:18:13;1.58;;;0.60;;
325;SDS011;150;52.352;14.058;2023-06-04T08:20:40;2.28;;;1.00;;
325;SDS011;150;52.352;14.058;2023-06-04T08:23:08;2.72;;;0.82;;
325;SDS011;150;52.352;14.058;2023-06-04T08:25:35;1.88;;;0.63;;
325;SDS011;150;52.352;14.058;2023-06-04T08:28:01;3.00;;;2.00;;
325;SDS011;150;52.352;14.058;2023-06-04T08:30:28;1.65;;;0.73;;
325;SDS011;150;52.352;14.058;2023-06-04T08:32:54;4.20;;;2.53;;
325;SDS011;150;52.352;14.058;2023-06-04T08:35:21;2.22;;;0.98;;
325;SDS011;150;52.352;14.058;2023-06-04T08:37:47;2.50;;;1.00;;
325;SDS011;150;52.352;14.058;2023-06-04T08:40:15;1.70;;;0.80;;
325;SDS011;150;52.352;14.058;2023-06-04T08:42:43;1.90;;;1.00;;
325;SDS011;150;52.352;14.058;2023-06-04T08:45:10;2.20;;;0.70;;
325;SDS011;150;52.352;14.058;2023-06-04T08:47:39;1.83;;;0.80;;
325;SDS011;150;52.352;14.058;2023-06-04T08:50:10;2.80;;;0.80;;
325;SDS011;150;52.352;14.058;2023-06-04T08:52:38;2.45;;;1.10;;
325;SDS011;150;52.352;14.058;2023-06-04T08:55:06;1.80;;;0.90;;
325;SDS011;150;52.352;14.058;2023-06-04T08:57:38;9.03;;;6.33;;
325;SDS011;150;52.352;14.058;2023-06-04T09:00:05;2.20;;;0.80;;
325;SDS011;150;52.352;14.058;2023-06-04T09:02:33;2.40;;;0.70;;
325;SDS011;150;52.352;14.058;2023-06-04T09:05:02;2.17;;;0.90;;
325;SDS011;150;52.352;14.058;2023-06-04T09:07:32;2.75;;;1.45;;
325;SDS011;150;52.352;14.058;2023-06-04T09:10:02;2.17;;;0.90;;
325;SDS011;150;52.352;14.058;2023-06-04T09:12:30;5.30;;;1.10;;
325;SDS011;150;52.352;14.058;2023-06-04T09:14:59;1.80;;;0.75;;
325;SDS011;150;52.352;14.058;2023-06-04T09:17:26;2.63;;;0.68;;
325;SDS011;150;52.352;14.058;2023-06-04T09:19:54;2.30;;;0.63;;
325;SDS011;150;52.352;14.058;2023-06-04T09:22:31;1.92;;;0.60;;
325;SDS011;150;52.352;14.058;2023-06-04T09:24:58;2.20;;;1.00;;
325;SDS011;150;52.352;14.058;2023-06-04T09:27:24;1.90;;;0.70;;
325;SDS011;150;52.352;14.058;2023-06-04T09:29:53;1.63;;;0.80;;
325;SDS011;150;52.352;14.058;2023-06-04T09:32:23;4.88;;;1.30;;
325;SDS011;150;52.352;14.058;2023-06-04T09:34:50;5.53;;;4.33;;
325;SDS011;150;52.352;14.058;2023-06-04T09:37:17;2.00;;;0.65;;
325;SDS011;150;52.352;14.058;2023-06-04T09:39:52;1.90;;;0.93;;
325;SDS011;150;52.352;14.058;2023-06-04T09:42:20;1.40;;;0.50;;
325;SDS011;150;52.352;14.058;2023-06-04T09:44:46;1.52;;;0.60;;
325;SDS011;150;52.352;14.058;2023-06-04T09:47:13;2.20;;;0.60;;
325;SDS011;150;52.352;14.058;2023-06-04T09:49:42;1.90;;;0.60;;
325;SDS011;150;52.352;14.058;2023-06-04T09:52:09;2.63;;;0.70;;
325;SDS011;150;52.352;14.058;2023-06-04T09:54:36;1.50;;;0.70;;
325;SDS011;150;52.352;14.058;2023-06-04T09:57:03;5.50;;;0.70;;
325;SDS011;150;52.352;14.058;2023-06-04T09:59:31;3.25;;;0.70;;
325;SDS011;150;52.352;14.058;2023-06-04T10:02:02;1.48;;;0.68;;
325;SDS011;150;52.352;14.058;2023-06-04T10:04:30;1.63;;;0.52;;
325;SDS011;150;52.352;14.058;2023-06-04T10:07:01;1.70;;;0.70;;
325;SDS011;150;52.352;14.058;2023-06-04T10:09:30;3.25;;;0.50;;
325;SDS011;150;52.352;14.058;2023-06-04T10:11:58;3.17;;;1.50;;
325;SDS011;150;52.352;14.058;2023-06-04T10:14:27;3.20;;;0.80;;
325;SDS011;150;52.352;14.058;2023-06-04T10:17:03;1.75;;;0.60;;
325;SDS011;150;52.352;14.058;2023-06-04T10:19:31;5.85;;;3.40;;
325;SDS011;150;52.352;14.058;2023-06-04T10:22:02;2.28;;;0.77;;
325;SDS011;150;52.352;14.058;2023-06-04T10:24:30;3.25;;;1.58;;
325;SDS011;150;52.352;14.058;2023-06-04T10:26:57;2.90;;;0.80;;
325;SDS011;150;52.352;14.058;2023-06-04T10:29:25;1.67;;;0.70;;
325;SDS011;150;52.352;14.058;2023-06-04T10:31:53;1.40;;;0.80;;
325;SDS011;150;52.352;14.058;2023-06-04T10:34:20;2.80;;;0.90;;
325;SDS011;150;52.352;14.058;2023-06-04T10:36:47;1.90;;;0.60;;
325;SDS011;150;52.352;14.058;2023-06-04T10:39:24;4.50;;;1.20;;
325;SDS011;150;52.352;14.058;2023-06-04T10:41:56;3.20;;;0.50;;
325;SDS011;150;52.352;14.058;2023-06-04T10:44:24;1.70;;;0.70;;
325;SDS011;150;52.352;14.058;2023-06-04T10:46:51;2.10;;;1.08;;
325;SDS011;150;52.352;14.058;2023-06-04T10:49:25;2.20;;;0.90;;
325;SDS011;150;52.352;14.058;2023-06-04T10:51:56;8.27;;;1.38;;
325;SDS011;150;52.352;14.058;2023-06-04T10:54:29;1.80;;;0.60;;
325;SDS011;150;52.352;14.058;2023-06-04T10:56:57;1.70;;;0.50;;
325;SDS011;150;52.352;14.058;2023-06-04T10:59:24;3.10;;;0.50;;
325;SDS011;150;52.352;14.058;2023-06-04T11:01:50;1.83;;;0.70;;
325;SDS011;150;52.352;14.058;2023-06-04T11:04:18;2.10;;;0.75;;
325;SDS011;150;52.352;14.058;2023-06-04T11:06:46;3.95;;;1.10;;
325;SDS011;150;52.352;14.058;2023-06-04T11:09:13;2.55;;;1.48;;
325;SDS011;150;52.352;14.058;2023-06-04T11:11:43;3.20;;;1.50;;
325;SDS011;150;52.352;14.058;2023-06-04T11:14:10;3.00;;;0.90;;
325;SDS011;150;52.352;14.058;2023-06-04T11:16:38;1.80;;;0.70;;
325;SDS011;150;52.352;14.058;2023-06-04T11:19:05;1.80;;;0.65;;
325;SDS011;150;52.352;14.058;2023-06-04T11:21:33;2.30;;;0.80;;
325;SDS011;150;52.352;14.058;2023-06-04T11:24:01;1.73;;;0.93;;
325;SDS011;150;52.352;14.058;2023-06-04T11:26:30;4.30;;;1.30;;
325;SDS011;150;52.352;14.058;2023-06-04T11:28:59;2.83;;;2.00;;
325;SDS011;150;52.352;14.058;2023-06-04T11:31:27;2.47;;;0.80;;
325;SDS011;150;52.352;14.058;2023-06-04T11:33:54;3.20;;;0.80;;
325;SDS011;150;52.352;14.058;2023-06-04T11:36:24;4.78;;;0.88;;
325;SDS011;150;52.352;14.058;2023-06-04T11:38:57;1.80;;;0.70;;
325;SDS011;150;52.352;14.058;2023-06-04T11:41:26;1.60;;;0.60;;
325;SDS011;150;52.352;14.058;2023-06-04T11:43:54;2.90;;;0.90;;
325;SDS011;150;52.352;14.058;2023-06-04T11:46:23;1.70;;;0.70;;
325;SDS011;150;52.352;14.058;2023-06-04T11:48:51;1.60;;;0.70;;
325;SDS011;150;52.352;14.058;2023-06-04T11:51:19;1.30;;;0.60;;
325;SDS011;150;52.352;14.058;2023-06-04T11:53:46;3.00;;;0.90;;
325;SDS011;150;52.352;14.058;2023-06-04T11:56:12;3.00;;;0.80;;
325;SDS011;150;52.352;14.058;2023-06-04T11:58:40;1.60;;;0.73;;
325;SDS011;150;52.352;14.058;2023-06-04T12:01:07;1.90;;;0.70;;
325;SDS011;150;52.352;14.058;2023-06-04T12:03:35;1.88;;;0.88;;
325;SDS011;150;52.352;14.058;2023-06-04T12:06:12;2.53;;;1.60;;
325;SDS011;150;52.352;14.058;2023-06-04T12:08:44;1.70;;;0.60;;
325;SDS011;150;52.352;14.058;2023-06-04T12:11:27;1.60;;;0.70;;
325;SDS011;150;52.352;14.058;2023-06-04T12:13:57;1.47;;;0.70;;
325;SDS011;150;52.352;14.058;2023-06-04T12:16:25;1.60;;;0.80;;
325;SDS011;150;52.352;14.058;2023-06-04T12:19:04;2.10;;;0.70;;
325;SDS011;150;52.352;14.058;2023-06-04T12:21:32;1.73;;;0.70;;
325;SDS011;150;52.352;14.058;2023-06-04T12:24:06;1.70;;;0.88;;
325;SDS011;150;52.352;14.058;2023-06-04T12:26:34;1.30;;;0.70;;
325;SDS011;150;52.352;14.058;2023-06-04T12:29:09;1.55;;;0.70;;
325;SDS011;150;52.352;14.058;2023-06-04T12:31:42;1.70;;;0.80;;
325;SDS011;150;52.352;14.058;2023-06-04T12:34:12;4.65;;;1.10;;
325;SDS011;150;52.352;14.058;2023-06-04T12:36:39;3.85;;;1.83;;
325;SDS011;150;52.352;14.058;2023-06-04T12:39:07;2.00;;;0.80;;
325;SDS011;150;52.352;14.058;2023-06-04T12:41:34;2.30;;;0.80;;
325;SDS011;150;52.352;14.058;2023-06-04T12:44:01;1.70;;;0.60;;
325;SDS011;150;52.352;14.058;2023-06-04T12:46:28;3.03;;;1.13;;
325;SDS011;150;52.352;14.058;2023-06-04T12:48:55;2.20;;;1.00;;
325;SDS011;150;52.352;14.058;2023-06-04T12:51:23;2.88;;;0.73;;
325;SDS011;150;52.352;14.058;2023-06-04T12:53:50;1.30;;;0.63;;
325;SDS011;150;52.352;14.058;2023-06-04T12:56:17;8.45;;;1.50;;
325;SDS011;150;52.352;14.058;2023-06-04T12:58:44;1.60;;;0.52;;
325;SDS011;150;52.352;14.058;2023-06-04T13:01:11;1.60;;;0.80;;
325;SDS011;150;52.352;14.058;2023-06-04T13:03:39;3.38;;;0.90;;
325;SDS011;150;52.352;14.058;2023-06-04T13:06:06;1.90;;;0.70;;
325;SDS011;150;52.352;14.058;2023-06-04T13:08:34;1.90;;;0.70;;
325;SDS011;150;52.352;14.058;2023-06-04T13:11:02;1.60;;;0.60;;
325;SDS011;150;52.352;14.058;2023-06-04T13:13:29;2.53;;;0.80;;
325;SDS011;150;52.352;14.058;2023-06-04T13:15:56;2.30;;;1.00;;
325;SDS011;150;52.352;14.058;2023-06-04T13:18:23;3.33;;;0.97;;
325;SDS011;150;52.352;14.058;2023-06-04T13:20:49;1.90;;;0.90;;
325;SDS011;150;52.352;14.058;2023-06-04T13:23:16;2.00;;;1.10;;
325;SDS011;150;52.352;14.058;2023-06-04T13:25:44;1.90;;;0.98;;
325;SDS011;150;52.352;14.058;2023-06-04T13:28:11;1.75;;;0.90;;
325;SDS011;150;52.352;14.058;2023-06-04T13:30:37;2.05;;;0.85;;
325;SDS011;150;52.352;14.058;2023-06-04T13:33:05;6.72;;;2.00;;
325;SDS011;150;52.352;14.058;2023-06-04T13:35:31;1.70;;;0.80;;
325;SDS011;150;52.352;14.058;2023-06-04T13:37:58;2.53;;;1.10;;
325;SDS011;150;52.352;14.058;2023-06-04T13:40:25;1.60;;;0.60;;
325;SDS011;150;52.352;14.058;2023-06-04T13:42:53;2.70;;;0.90;;
325;SDS011;150;52.352;14.058;2023-06-04T13:45:20;1.88;;;0.80;;
325;SDS011;150;52.352;14.058;2023-06-04T13:47:47;2.80;;;0.70;;
325;SDS011;150;52.352;14.058;2023-06-04T13:50:14;1.88;;;0.90;;
325;SDS011;150;52.352;14.058;2023-06-04T13:52:41;2.30;;;1.10;;
325;SDS011;150;52.352;14.058;2023-06-04T13:55:08;3.90;;;0.90;;
325;SDS011;150;52.352;14.058;2023-06-04T13:57:35;3.00;;;0.80;;
325;SDS011;150;52.352;14.058;2023-06-04T14:00:03;2.65;;;1.63;;
325;SDS011;150;52.352;14.058;2023-06-04T14:02:32;2.00;;;0.70;;
325;SDS011;150;52.352;14.058;2023-06-04T14:04:59;2.40;;;0.80;;
325;SDS011;150;52.352;14.058;2023-06-04T14:07:25;2.80;;;1.00;;
325;SDS011;150;52.352;14.058;2023-06-04T14:09:52;1.73;;;0.70;;
325;SDS011;150;52.352;14.058;2023-06-04T14:13:29;3.90;;;1.10;;
325;SDS011;150;52.352;14.058;2023-06-04T14:18:40;1.67;;;0.70;;
325;SDS011;150;52.352;14.058;2023-06-04T14:21:15;1.80;;;0.50;;
325;SDS011;150;52.352;14.058;2023-06-04T14:24:23;1.80;;;0.80;;
325;SDS011;150;52.352;14.058;2023-06-04T14:26:56;1.70;;;0.80;;
325;SDS011;150;52.352;14.058;2023-06-04T14:30:40;2.50;;;0.90;;
325;SDS011;150;52.352;14.058;2023-06-04T14:34:05;1.40;;;0.60;;
325;SDS011;150;52.352;14.058;2023-06-04T14:36:59;3.90;;;0.80;;
325;SDS011;150;52.352;14.058;2023-06-04T14:39:56;2.10;;;0.98;;
325;SDS011;150;52.352;14.058;2023-06-04T14:42:39;1.70;;;0.85;;
325;SDS011;150;52.352;14.058;2023-06-04T14:54:55;2.63;;;0.90;;
325;SDS011;150;52.352;14.058;2023-06-04T14:58:03;1.70;;;0.70;;
325;SDS011;150;52.352;14.058;2023-06-04T15:00:41;3.20;;;0.70;;
325;SDS011;150;52.352;14.058;2023-06-04T15:03:13;1.80;;;0.60;;
325;SDS011;150;52.352;14.058;2023-06-04T15:06:04;2.85;;;1.00;;
325;SDS011;150;52.352;14.058;2023-06-04T15:08:54;1.50;;;0.70;;
325;SDS011;150;52.352;14.058;2023-06-04T15:11:30;1.50;;;0.73;;
325;SDS011;150;52.352;14.058;2023-06-04T15:14:29;1.70;;;0.98;;
325;SDS011;150;52.352;14.058;2023-06-04T15:20:19;2.40;;;1.15;;
325;SDS011;150;52.352;14.058;2023-06-04T15:26:33;2.08;;;0.90;;
325;SDS011;150;52.352;14.058;2023-06-04T15:29:12;1.30;;;0.50;;
325;SDS011;150;52.352;14.058;2023-06-04T15:31:54;2.00;;;1.03;;
325;SDS011;150;52.352;14.058;2023-06-04T15:34:37;1.90;;;0.85;;
325;SDS011;150;52.352;14.058;2023-06-04T15:37:50;1.77;;;0.80;;
325;SDS011;150;52.352;14.058;2023-06-04T15:41:27;2.33;;;0.82;;
325;SDS011;150;52.352;14.058;2023-06-04T15:50:44;1.77;;;0.82;;
325;SDS011;150;52.352;14.058;2023-06-04T15:57:22;2.15;;;0.90;;
325;SDS011;150;52.352;14.058;2023-06-04T16:00:34;2.00;;;0.80;;
325;SDS011;150;52.352;14.058;2023-06-04T16:03:59;1.80;;;0.60;;
325;SDS011;150;52.352;14.058;2023-06-04T16:13:53;3.85;;;2.30;;
325;SDS011;150;52.352;14.058;2023-06-04T16:16:39;4.25;;;1.92;;
325;SDS011;150;52.352;14.058;2023-06-04T16:23:31;1.70;;;0.90;;
325;SDS011;150;52.352;14.058;2023-06-04T16:26:38;2.00;;;1.00;;
325;SDS011;150;52.352;14.058;2023-06-04T16:30:07;3.00;;;1.25;;
325;SDS011;150;52.352;14.058;2023-06-04T16:36:50;2.75;;;1.10;;
325;SDS011;150;52.352;14.058;2023-06-04T16:43:52;2.00;;;0.80;;
325;SDS011;150;52.352;14.058;2023-06-04T16:46:28;2.40;;;1.48;;